EDVK/KSF METAR and TAF weather

Enter ICAO airport designator
Station Type Date Time Source
EDVK METAR 2021/09/27 06:50 UTC NOAA

EDVK 270650Z 15004KT 9000 BCFG SCT003 BKN010 15/15 Q1017


Station Type Date Time Source
EDVK Decoded METAR 2021/09/27 06:50 UTC NOAA

Kassel / Calden, Germany (EDVK) 51-24N 009-23E 283M
Sep 27, 2021 - 02:50 AM EDT / 2021.09.27 0650 UTC
Wind: from the SSE (150 degrees) at 5 MPH (4 KT):0
Visibility: 5 mile(s):0
Sky conditions: mostly cloudy
Weather: patches of fog
Temperature: 59 F (15 C)
Dew Point: 59 F (15 C)
Relative Humidity: 100%
Pressure (altimeter): 30.03 in. Hg (1017 hPa)
ob: EDVK 270650Z 15004KT 9000 BCFG SCT003 BKN010 15/15 Q1017
cycle: 7

Station Type Date Time Source
EDVK TAF 2011/03/23 07:09 UTC NOAA

TAF COR EDVK 230655Z 2307/2321 30002KT 3500 BR SCT025 PROB30
TEMPO 2307/2309 1400 BCFG
BECMG 2307/2310 01007KT 8000

Example: see airport list